sensor_id;sensor_type;location;lat;lon;timestamp;temperature;humidity
36556;DHT22;40859;50.560;7.268;2022-07-18T00:01:56;24.20;97.60
36556;DHT22;40859;50.560;7.268;2022-07-18T00:04:23;24.20;97.60
36556;DHT22;40859;50.560;7.268;2022-07-18T00:06:49;24.20;97.60
36556;DHT22;40859;50.560;7.268;2022-07-18T00:09:15;24.20;97.60
36556;DHT22;40859;50.560;7.268;2022-07-18T00:11:41;24.20;97.60
36556;DHT22;40859;50.560;7.268;2022-07-18T00:14:07;24.20;97.70
36556;DHT22;40859;50.560;7.268;2022-07-18T00:16:37;24.20;97.80
36556;DHT22;40859;50.560;7.268;2022-07-18T00:19:03;24.20;97.80
36556;DHT22;40859;50.560;7.268;2022-07-18T00:21:29;24.20;98.20
36556;DHT22;40859;50.560;7.268;2022-07-18T00:23:55;24.20;97.80
36556;DHT22;40859;50.560;7.268;2022-07-18T00:26:21;24.20;97.80
36556;DHT22;40859;50.560;7.268;2022-07-18T00:28:47;24.20;97.80
36556;DHT22;40859;50.560;7.268;2022-07-18T00:31:13;24.20;97.80
36556;DHT22;40859;50.560;7.268;2022-07-18T00:33:39;24.20;97.80
36556;DHT22;40859;50.560;7.268;2022-07-18T00:36:06;24.20;97.80
36556;DHT22;40859;50.560;7.268;2022-07-18T00:38:32;24.20;97.80
36556;DHT22;40859;50.560;7.268;2022-07-18T00:40:58;24.30;97.80
36556;DHT22;40859;50.560;7.268;2022-07-18T00:43:24;24.20;97.80
36556;DHT22;40859;50.560;7.268;2022-07-18T00:45:50;24.20;97.70
36556;DHT22;40859;50.560;7.268;2022-07-18T00:48:19;24.20;97.70
36556;DHT22;40859;50.560;7.268;2022-07-18T00:50:46;24.20;97.70
36556;DHT22;40859;50.560;7.268;2022-07-18T00:53:12;24.20;97.60
36556;DHT22;40859;50.560;7.268;2022-07-18T00:55:42;24.20;97.60
36556;DHT22;40859;50.560;7.268;2022-07-18T00:58:10;24.20;97.60
36556;DHT22;40859;50.560;7.268;2022-07-18T01:00:37;24.20;97.40
36556;DHT22;40859;50.560;7.268;2022-07-18T01:03:22;24.20;97.40
36556;DHT22;40859;50.560;7.268;2022-07-18T01:05:48;24.20;97.30
36556;DHT22;40859;50.560;7.268;2022-07-18T01:08:14;24.10;97.30
36556;DHT22;40859;50.560;7.268;2022-07-18T01:10:40;24.10;97.30
36556;DHT22;40859;50.560;7.268;2022-07-18T01:13:07;24.10;97.30
36556;DHT22;40859;50.560;7.268;2022-07-18T01:15:33;24.10;97.30
36556;DHT22;40859;50.560;7.268;2022-07-18T01:17:59;24.10;97.20
36556;DHT22;40859;50.560;7.268;2022-07-18T01:20:27;24.10;97.20
36556;DHT22;40859;50.560;7.268;2022-07-18T01:22:53;24.10;97.20
36556;DHT22;40859;50.560;7.268;2022-07-18T01:25:19;24.10;97.20
36556;DHT22;40859;50.560;7.268;2022-07-18T01:27:45;24.10;97.10
36556;DHT22;40859;50.560;7.268;2022-07-18T01:30:11;24.10;97.10
36556;DHT22;40859;50.560;7.268;2022-07-18T01:32:37;24.10;97.10
36556;DHT22;40859;50.560;7.268;2022-07-18T01:35:04;24.10;97.10
36556;DHT22;40859;50.560;7.268;2022-07-18T01:37:30;24.10;97.20
36556;DHT22;40859;50.560;7.268;2022-07-18T01:39:56;24.10;97.30
36556;DHT22;40859;50.560;7.268;2022-07-18T01:42:21;24.10;97.30
36556;DHT22;40859;50.560;7.268;2022-07-18T01:44:48;24.10;97.30
36556;DHT22;40859;50.560;7.268;2022-07-18T01:47:14;24.10;97.20
36556;DHT22;40859;50.560;7.268;2022-07-18T01:49:42;24.10;97.20
36556;DHT22;40859;50.560;7.268;2022-07-18T01:52:09;24.10;97.20
36556;DHT22;40859;50.560;7.268;2022-07-18T01:54:36;24.10;97.20
36556;DHT22;40859;50.560;7.268;2022-07-18T01:57:04;24.00;97.20
36556;DHT22;40859;50.560;7.268;2022-07-18T01:59:30;24.10;97.20
36556;DHT22;40859;50.560;7.268;2022-07-18T02:01:56;24.00;97.20
36556;DHT22;40859;50.560;7.268;2022-07-18T02:04:22;24.00;97.30
36556;DHT22;40859;50.560;7.268;2022-07-18T02:07:43;24.00;97.30
36556;DHT22;40859;50.560;7.268;2022-07-18T02:10:19;24.00;97.20
36556;DHT22;40859;50.560;7.268;2022-07-18T02:12:46;24.00;97.20
36556;DHT22;40859;50.560;7.268;2022-07-18T02:15:13;24.00;97.20
36556;DHT22;40859;50.560;7.268;2022-07-18T02:17:40;24.00;97.30
36556;DHT22;40859;50.560;7.268;2022-07-18T02:20:08;24.00;97.30
36556;DHT22;40859;50.560;7.268;2022-07-18T02:22:35;23.90;97.30
36556;DHT22;40859;50.560;7.268;2022-07-18T02:25:00;24.00;97.30
36556;DHT22;40859;50.560;7.268;2022-07-18T02:27:27;24.00;97.30
36556;DHT22;40859;50.560;7.268;2022-07-18T02:29:53;24.00;97.40
36556;DHT22;40859;50.560;7.268;2022-07-18T02:32:19;24.00;97.20
36556;DHT22;40859;50.560;7.268;2022-07-18T02:34:45;24.00;97.20
36556;DHT22;40859;50.560;7.268;2022-07-18T02:37:11;24.00;97.30
36556;DHT22;40859;50.560;7.268;2022-07-18T02:39:37;24.00;97.20
36556;DHT22;40859;50.560;7.268;2022-07-18T02:42:03;24.00;97.20
36556;DHT22;40859;50.560;7.268;2022-07-18T02:44:29;24.00;97.20
36556;DHT22;40859;50.560;7.268;2022-07-18T02:46:55;23.90;97.00
36556;DHT22;40859;50.560;7.268;2022-07-18T02:49:21;23.80;97.10
36556;DHT22;40859;50.560;7.268;2022-07-18T02:51:57;23.80;97.30
36556;DHT22;40859;50.560;7.268;2022-07-18T02:54:24;23.80;97.40
36556;DHT22;40859;50.560;7.268;2022-07-18T02:56:51;23.80;97.40
36556;DHT22;40859;50.560;7.268;2022-07-18T02:59:16;23.90;97.30
36556;DHT22;40859;50.560;7.268;2022-07-18T03:01:42;23.90;97.30
36556;DHT22;40859;50.560;7.268;2022-07-18T03:04:08;23.90;97.30
36556;DHT22;40859;50.560;7.268;2022-07-18T03:06:34;23.90;97.30
36556;DHT22;40859;50.560;7.268;2022-07-18T03:09:01;23.90;97.40
36556;DHT22;40859;50.560;7.268;2022-07-18T03:11:27;23.90;97.40
36556;DHT22;40859;50.560;7.268;2022-07-18T03:13:52;23.90;97.40
36556;DHT22;40859;50.560;7.268;2022-07-18T03:16:18;23.90;97.30
36556;DHT22;40859;50.560;7.268;2022-07-18T03:18:44;23.90;97.40
36556;DHT22;40859;50.560;7.268;2022-07-18T03:21:10;23.90;97.40
36556;DHT22;40859;50.560;7.268;2022-07-18T03:23:36;23.90;97.40
36556;DHT22;40859;50.560;7.268;2022-07-18T03:26:02;23.90;97.40
36556;DHT22;40859;50.560;7.268;2022-07-18T03:28:28;23.90;97.40
36556;DHT22;40859;50.560;7.268;2022-07-18T03:30:54;23.90;97.30
36556;DHT22;40859;50.560;7.268;2022-07-18T03:33:20;23.90;97.30
36556;DHT22;40859;50.560;7.268;2022-07-18T03:35:45;23.90;97.30
36556;DHT22;40859;50.560;7.268;2022-07-18T03:38:11;23.90;97.60
36556;DHT22;40859;50.560;7.268;2022-07-18T03:40:37;23.90;97.30
36556;DHT22;40859;50.560;7.268;2022-07-18T03:43:04;23.90;97.40
36556;DHT22;40859;50.560;7.268;2022-07-18T03:45:30;23.90;97.40
36556;DHT22;40859;50.560;7.268;2022-07-18T03:47:56;23.80;97.30
36556;DHT22;40859;50.560;7.268;2022-07-18T03:50:22;23.90;97.40
36556;DHT22;40859;50.560;7.268;2022-07-18T03:52:48;23.90;97.40
36556;DHT22;40859;50.560;7.268;2022-07-18T03:55:14;23.80;97.40
36556;DHT22;40859;50.560;7.268;2022-07-18T03:57:41;23.80;97.30
36556;DHT22;40859;50.560;7.268;2022-07-18T04:00:08;23.80;97.40
36556;DHT22;40859;50.560;7.268;2022-07-18T04:02:43;23.80;97.40
36556;DHT22;40859;50.560;7.268;2022-07-18T04:05:10;23.80;97.40
36556;DHT22;40859;50.560;7.268;2022-07-18T04:07:36;23.80;97.40
36556;DHT22;40859;50.560;7.268;2022-07-18T04:10:05;23.80;97.40
36556;DHT22;40859;50.560;7.268;2022-07-18T04:12:35;23.80;97.40
36556;DHT22;40859;50.560;7.268;2022-07-18T04:15:10;23.80;97.40
36556;DHT22;40859;50.560;7.268;2022-07-18T04:17:36;23.80;97.40
36556;DHT22;40859;50.560;7.268;2022-07-18T04:20:03;23.80;97.50
36556;DHT22;40859;50.560;7.268;2022-07-18T04:22:29;23.80;97.50
36556;DHT22;40859;50.560;7.268;2022-07-18T04:24:55;23.80;97.50
36556;DHT22;40859;50.560;7.268;2022-07-18T10:29:27;23.90;94.90
36556;DHT22;40859;50.560;7.268;2022-07-18T10:32:04;23.90;94.90
36556;DHT22;40859;50.560;7.268;2022-07-18T10:34:36;23.90;95.10
36556;DHT22;40859;50.560;7.268;2022-07-18T10:37:11;23.90;95.10
36556;DHT22;40859;50.560;7.268;2022-07-18T10:39:42;23.90;95.10
36556;DHT22;40859;50.560;7.268;2022-07-18T10:42:16;23.90;95.00
36556;DHT22;40859;50.560;7.268;2022-07-18T10:44:44;23.90;95.20
36556;DHT22;40859;50.560;7.268;2022-07-18T10:47:18;23.90;94.80
36556;DHT22;40859;50.560;7.268;2022-07-18T10:50:19;24.00;94.80
36556;DHT22;40859;50.560;7.268;2022-07-18T10:53:03;24.00;94.90
36556;DHT22;40859;50.560;7.268;2022-07-18T10:55:29;24.00;94.80
36556;DHT22;40859;50.560;7.268;2022-07-18T10:58:18;24.10;94.40
36556;DHT22;40859;50.560;7.268;2022-07-18T11:00:46;24.10;94.20
36556;DHT22;40859;50.560;7.268;2022-07-18T11:03:15;24.10;94.10
36556;DHT22;40859;50.560;7.268;2022-07-18T11:05:44;24.10;94.10
36556;DHT22;40859;50.560;7.268;2022-07-18T11:08:17;24.10;94.10
36556;DHT22;40859;50.560;7.268;2022-07-18T11:11:05;24.10;94.20
36556;DHT22;40859;50.560;7.268;2022-07-18T11:13:33;24.00;94.30
36556;DHT22;40859;50.560;7.268;2022-07-18T11:16:20;24.00;94.60
36556;DHT22;40859;50.560;7.268;2022-07-18T11:21:57;24.20;94.40
36556;DHT22;40859;50.560;7.268;2022-07-18T11:24:23;24.30;93.80
36556;DHT22;40859;50.560;7.268;2022-07-18T11:26:49;24.30;93.80
36556;DHT22;40859;50.560;7.268;2022-07-18T11:29:16;24.30;93.80
36556;DHT22;40859;50.560;7.268;2022-07-18T11:31:49;24.30;93.80
36556;DHT22;40859;50.560;7.268;2022-07-18T11:34:15;24.30;93.70
36556;DHT22;40859;50.560;7.268;2022-07-18T11:36:43;24.30;93.70
36556;DHT22;40859;50.560;7.268;2022-07-18T11:39:11;24.30;93.80
36556;DHT22;40859;50.560;7.268;2022-07-18T11:41:38;24.30;94.10
36556;DHT22;40859;50.560;7.268;2022-07-18T11:44:20;24.30;94.40
36556;DHT22;40859;50.560;7.268;2022-07-18T11:47:07;24.30;94.50
36556;DHT22;40859;50.560;7.268;2022-07-18T11:49:35;24.40;94.30
36556;DHT22;40859;50.560;7.268;2022-07-18T11:52:01;24.30;94.30
36556;DHT22;40859;50.560;7.268;2022-07-18T11:54:27;24.30;94.10
36556;DHT22;40859;50.560;7.268;2022-07-18T11:56:55;24.30;94.00
36556;DHT22;40859;50.560;7.268;2022-07-18T11:59:23;24.30;93.90
36556;DHT22;40859;50.560;7.268;2022-07-18T12:01:59;24.30;93.90
36556;DHT22;40859;50.560;7.268;2022-07-18T12:04:27;24.30;94.00
36556;DHT22;40859;50.560;7.268;2022-07-18T12:07:16;24.30;94.20
36556;DHT22;40859;50.560;7.268;2022-07-18T12:09:43;24.30;94.10
36556;DHT22;40859;50.560;7.268;2022-07-18T12:12:11;24.40;94.50
36556;DHT22;40859;50.560;7.268;2022-07-18T12:14:37;24.40;94.20
36556;DHT22;40859;50.560;7.268;2022-07-18T12:17:05;24.40;94.30
36556;DHT22;40859;50.560;7.268;2022-07-18T12:19:37;24.40;94.30
36556;DHT22;40859;50.560;7.268;2022-07-18T12:22:08;24.40;94.20
36556;DHT22;40859;50.560;7.268;2022-07-18T12:24:52;24.40;94.00
36556;DHT22;40859;50.560;7.268;2022-07-18T12:27:24;24.40;93.90
36556;DHT22;40859;50.560;7.268;2022-07-18T12:30:51;24.40;93.80
36556;DHT22;40859;50.560;7.268;2022-07-18T12:33:16;24.40;93.80
36556;DHT22;40859;50.560;7.268;2022-07-18T12:35:43;24.40;93.70
36556;DHT22;40859;50.560;7.268;2022-07-18T12:38:14;24.50;93.80
36556;DHT22;40859;50.560;7.268;2022-07-18T12:40:49;24.50;93.70
36556;DHT22;40859;50.560;7.268;2022-07-18T12:43:34;24.50;93.70
36556;DHT22;40859;50.560;7.268;2022-07-18T12:46:04;24.50;93.60
36556;DHT22;40859;50.560;7.268;2022-07-18T12:48:32;24.50;93.70
36556;DHT22;40859;50.560;7.268;2022-07-18T12:51:06;24.50;93.70
36556;DHT22;40859;50.560;7.268;2022-07-18T12:53:34;24.50;94.00
36556;DHT22;40859;50.560;7.268;2022-07-18T12:56:00;24.50;94.10
36556;DHT22;40859;50.560;7.268;2022-07-18T12:58:26;24.60;94.30
36556;DHT22;40859;50.560;7.268;2022-07-18T13:00:52;24.60;94.40
36556;DHT22;40859;50.560;7.268;2022-07-18T13:03:21;24.60;94.60
36556;DHT22;40859;50.560;7.268;2022-07-18T13:05:47;24.60;94.40
36556;DHT22;40859;50.560;7.268;2022-07-18T13:08:13;24.60;94.30
36556;DHT22;40859;50.560;7.268;2022-07-18T13:10:40;24.60;94.30
36556;DHT22;40859;50.560;7.268;2022-07-18T13:13:08;24.60;94.20
36556;DHT22;40859;50.560;7.268;2022-07-18T13:15:35;24.60;93.90
36556;DHT22;40859;50.560;7.268;2022-07-18T13:18:01;24.60;93.80
36556;DHT22;40859;50.560;7.268;2022-07-18T13:20:28;24.60;93.80
36556;DHT22;40859;50.560;7.268;2022-07-18T13:22:56;24.60;93.80
36556;DHT22;40859;50.560;7.268;2022-07-18T13:25:22;24.60;93.70
36556;DHT22;40859;50.560;7.268;2022-07-18T13:27:48;24.60;93.80
36556;DHT22;40859;50.560;7.268;2022-07-18T13:30:14;24.70;94.00
36556;DHT22;40859;50.560;7.268;2022-07-18T13:32:40;24.70;93.90
36556;DHT22;40859;50.560;7.268;2022-07-18T13:35:10;24.70;93.90
36556;DHT22;40859;50.560;7.268;2022-07-18T13:37:36;24.70;93.80
36556;DHT22;40859;50.560;7.268;2022-07-18T13:40:02;24.70;93.80
36556;DHT22;40859;50.560;7.268;2022-07-18T13:42:28;24.80;93.90
36556;DHT22;40859;50.560;7.268;2022-07-18T13:44:54;24.80;94.00
36556;DHT22;40859;50.560;7.268;2022-07-18T13:47:20;24.80;93.90
36556;DHT22;40859;50.560;7.268;2022-07-18T13:49:46;24.80;93.80
36556;DHT22;40859;50.560;7.268;2022-07-18T13:52:12;24.90;93.70
36556;DHT22;40859;50.560;7.268;2022-07-18T13:54:38;24.90;93.70
36556;DHT22;40859;50.560;7.268;2022-07-18T13:57:04;24.90;93.70
36556;DHT22;40859;50.560;7.268;2022-07-18T13:59:30;24.90;93.60
36556;DHT22;40859;50.560;7.268;2022-07-18T14:01:55;24.90;93.70
36556;DHT22;40859;50.560;7.268;2022-07-18T14:04:21;24.90;93.70
36556;DHT22;40859;50.560;7.268;2022-07-18T14:06:47;24.90;93.70
36556;DHT22;40859;50.560;7.268;2022-07-18T14:09:14;24.90;93.70
36556;DHT22;40859;50.560;7.268;2022-07-18T14:11:40;25.00;93.50
36556;DHT22;40859;50.560;7.268;2022-07-18T14:14:06;25.00;93.40
36556;DHT22;40859;50.560;7.268;2022-07-18T14:16:32;25.00;93.30
36556;DHT22;40859;50.560;7.268;2022-07-18T14:18:58;25.00;93.30
36556;DHT22;40859;50.560;7.268;2022-07-18T14:21:24;25.00;93.40
36556;DHT22;40859;50.560;7.268;2022-07-18T14:23:51;25.10;93.40
36556;DHT22;40859;50.560;7.268;2022-07-18T14:26:17;25.00;93.50
36556;DHT22;40859;50.560;7.268;2022-07-18T14:28:43;25.10;93.40
36556;DHT22;40859;50.560;7.268;2022-07-18T14:31:09;25.10;93.30
36556;DHT22;40859;50.560;7.268;2022-07-18T14:33:35;25.10;93.40
36556;DHT22;40859;50.560;7.268;2022-07-18T14:36:01;25.10;93.10
36556;DHT22;40859;50.560;7.268;2022-07-18T14:38:27;25.20;93.30
36556;DHT22;40859;50.560;7.268;2022-07-18T14:40:53;25.10;93.30
36556;DHT22;40859;50.560;7.268;2022-07-18T14:43:20;25.20;93.30
36556;DHT22;40859;50.560;7.268;2022-07-18T14:45:46;25.20;93.40
36556;DHT22;40859;50.560;7.268;2022-07-18T14:48:14;25.10;93.30
36556;DHT22;40859;50.560;7.268;2022-07-18T14:50:40;25.20;93.30
36556;DHT22;40859;50.560;7.268;2022-07-18T14:53:06;25.20;93.20
36556;DHT22;40859;50.560;7.268;2022-07-18T14:55:32;25.20;93.10
36556;DHT22;40859;50.560;7.268;2022-07-18T14:57:58;25.20;93.10
36556;DHT22;40859;50.560;7.268;2022-07-18T15:00:24;25.30;93.20
36556;DHT22;40859;50.560;7.268;2022-07-18T15:02:50;25.30;93.40
36556;DHT22;40859;50.560;7.268;2022-07-18T15:05:16;25.30;93.50
36556;DHT22;40859;50.560;7.268;2022-07-18T15:07:42;25.30;93.30
36556;DHT22;40859;50.560;7.268;2022-07-18T15:10:09;25.30;93.30
36556;DHT22;40859;50.560;7.268;2022-07-18T15:12:35;25.30;93.20
36556;DHT22;40859;50.560;7.268;2022-07-18T15:15:01;25.40;93.20
36556;DHT22;40859;50.560;7.268;2022-07-18T15:17:27;25.40;93.20
36556;DHT22;40859;50.560;7.268;2022-07-18T15:19:58;25.40;93.20
36556;DHT22;40859;50.560;7.268;2022-07-18T15:22:27;25.40;93.00
36556;DHT22;40859;50.560;7.268;2022-07-18T15:24:53;25.40;93.20
36556;DHT22;40859;50.560;7.268;2022-07-18T15:27:19;25.50;93.20
36556;DHT22;40859;50.560;7.268;2022-07-18T15:29:44;25.40;93.50
36556;DHT22;40859;50.560;7.268;2022-07-18T15:32:10;25.40;93.20
36556;DHT22;40859;50.560;7.268;2022-07-18T15:34:37;25.40;93.10
36556;DHT22;40859;50.560;7.268;2022-07-18T15:37:04;25.40;93.10
36556;DHT22;40859;50.560;7.268;2022-07-18T15:39:30;25.50;93.20
36556;DHT22;40859;50.560;7.268;2022-07-18T15:41:56;25.50;93.30
36556;DHT22;40859;50.560;7.268;2022-07-18T15:44:23;25.50;93.30
36556;DHT22;40859;50.560;7.268;2022-07-18T15:46:49;25.50;93.30
36556;DHT22;40859;50.560;7.268;2022-07-18T15:49:15;25.50;93.40
36556;DHT22;40859;50.560;7.268;2022-07-18T15:51:44;25.60;93.40
36556;DHT22;40859;50.560;7.268;2022-07-18T15:54:16;25.60;94.00
36556;DHT22;40859;50.560;7.268;2022-07-18T15:56:43;25.60;93.60
36556;DHT22;40859;50.560;7.268;2022-07-18T15:59:09;25.60;93.70
36556;DHT22;40859;50.560;7.268;2022-07-18T16:01:35;25.60;93.80
36556;DHT22;40859;50.560;7.268;2022-07-18T16:04:01;25.60;93.60
36556;DHT22;40859;50.560;7.268;2022-07-18T16:06:27;25.70;93.70
36556;DHT22;40859;50.560;7.268;2022-07-18T16:08:53;25.70;93.80
36556;DHT22;40859;50.560;7.268;2022-07-18T16:11:19;25.70;93.70
36556;DHT22;40859;50.560;7.268;2022-07-18T16:13:45;25.70;93.60
36556;DHT22;40859;50.560;7.268;2022-07-18T16:16:12;25.70;93.50
36556;DHT22;40859;50.560;7.268;2022-07-18T16:18:38;25.80;93.40
36556;DHT22;40859;50.560;7.268;2022-07-18T16:21:04;25.80;93.30
36556;DHT22;40859;50.560;7.268;2022-07-18T16:23:39;25.80;93.30
36556;DHT22;40859;50.560;7.268;2022-07-18T16:26:06;25.80;93.20
36556;DHT22;40859;50.560;7.268;2022-07-18T16:28:32;25.90;93.20
36556;DHT22;40859;50.560;7.268;2022-07-18T16:30:58;25.80;93.10
36556;DHT22;40859;50.560;7.268;2022-07-18T16:33:24;25.90;93.10
36556;DHT22;40859;50.560;7.268;2022-07-18T16:35:50;25.90;93.00
36556;DHT22;40859;50.560;7.268;2022-07-18T16:38:15;25.90;93.00
36556;DHT22;40859;50.560;7.268;2022-07-18T16:40:42;25.90;92.80
36556;DHT22;40859;50.560;7.268;2022-07-18T16:43:08;25.90;92.70
36556;DHT22;40859;50.560;7.268;2022-07-18T16:45:34;26.00;92.70
36556;DHT22;40859;50.560;7.268;2022-07-18T16:48:01;26.00;92.70
36556;DHT22;40859;50.560;7.268;2022-07-18T16:50:27;26.00;92.70
36556;DHT22;40859;50.560;7.268;2022-07-18T16:52:53;26.00;92.70
36556;DHT22;40859;50.560;7.268;2022-07-18T16:55:19;26.00;92.70
36556;DHT22;40859;50.560;7.268;2022-07-18T16:57:45;26.10;92.80
36556;DHT22;40859;50.560;7.268;2022-07-18T17:00:12;26.10;92.60
36556;DHT22;40859;50.560;7.268;2022-07-18T17:02:38;26.10;92.40
36556;DHT22;40859;50.560;7.268;2022-07-18T17:05:06;26.10;92.30
36556;DHT22;40859;50.560;7.268;2022-07-18T17:07:32;26.10;92.20
36556;DHT22;40859;50.560;7.268;2022-07-18T17:09:58;26.20;92.60
36556;DHT22;40859;50.560;7.268;2022-07-18T17:12:24;26.20;92.40
36556;DHT22;40859;50.560;7.268;2022-07-18T17:14:51;26.20;92.50
36556;DHT22;40859;50.560;7.268;2022-07-18T17:17:21;26.20;92.40
36556;DHT22;40859;50.560;7.268;2022-07-18T17:19:48;26.20;92.60
36556;DHT22;40859;50.560;7.268;2022-07-18T17:22:16;26.20;92.60
36556;DHT22;40859;50.560;7.268;2022-07-18T17:24:43;26.30;92.70
36556;DHT22;40859;50.560;7.268;2022-07-18T17:27:10;26.30;92.90
36556;DHT22;40859;50.560;7.268;2022-07-18T17:29:37;26.30;93.10
36556;DHT22;40859;50.560;7.268;2022-07-18T17:32:04;26.30;93.20
36556;DHT22;40859;50.560;7.268;2022-07-18T17:34:30;26.40;93.30
36556;DHT22;40859;50.560;7.268;2022-07-18T17:36:57;26.40;93.30
36556;DHT22;40859;50.560;7.268;2022-07-18T17:39:23;26.40;93.40
36556;DHT22;40859;50.560;7.268;2022-07-18T17:41:49;26.40;93.40
36556;DHT22;40859;50.560;7.268;2022-07-18T17:44:16;26.40;93.40
36556;DHT22;40859;50.560;7.268;2022-07-18T17:46:44;26.50;93.50
36556;DHT22;40859;50.560;7.268;2022-07-18T17:49:10;26.50;93.60
36556;DHT22;40859;50.560;7.268;2022-07-18T17:51:37;26.50;93.60
36556;DHT22;40859;50.560;7.268;2022-07-18T17:54:04;26.50;93.70
36556;DHT22;40859;50.560;7.268;2022-07-18T17:56:30;26.50;93.70
36556;DHT22;40859;50.560;7.268;2022-07-18T17:58:57;26.50;93.70
36556;DHT22;40859;50.560;7.268;2022-07-18T18:01:23;26.50;93.70
36556;DHT22;40859;50.560;7.268;2022-07-18T18:03:49;26.50;93.80
36556;DHT22;40859;50.560;7.268;2022-07-18T18:06:15;26.50;93.80
36556;DHT22;40859;50.560;7.268;2022-07-18T18:08:41;26.50;94.10
36556;DHT22;40859;50.560;7.268;2022-07-18T18:11:07;26.50;93.70
36556;DHT22;40859;50.560;7.268;2022-07-18T18:13:34;26.50;93.60
36556;DHT22;40859;50.560;7.268;2022-07-18T18:16:00;26.50;93.70
36556;DHT22;40859;50.560;7.268;2022-07-18T18:18:25;26.50;93.60
36556;DHT22;40859;50.560;7.268;2022-07-18T18:20:51;26.50;93.60
36556;DHT22;40859;50.560;7.268;2022-07-18T18:23:17;26.50;93.70
36556;DHT22;40859;50.560;7.268;2022-07-18T18:25:43;26.50;94.10
36556;DHT22;40859;50.560;7.268;2022-07-18T18:28:09;26.50;93.70
36556;DHT22;40859;50.560;7.268;2022-07-18T18:30:35;26.50;93.70
36556;DHT22;40859;50.560;7.268;2022-07-18T18:33:02;26.50;93.70
36556;DHT22;40859;50.560;7.268;2022-07-18T18:35:28;26.50;93.80
36556;DHT22;40859;50.560;7.268;2022-07-18T18:37:53;26.50;93.90
36556;DHT22;40859;50.560;7.268;2022-07-18T18:40:20;26.50;94.00
36556;DHT22;40859;50.560;7.268;2022-07-18T18:42:47;26.50;94.20
36556;DHT22;40859;50.560;7.268;2022-07-18T18:45:13;26.50;94.30
36556;DHT22;40859;50.560;7.268;2022-07-18T18:47:39;26.50;94.50
36556;DHT22;40859;50.560;7.268;2022-07-18T18:50:06;26.50;94.70
36556;DHT22;40859;50.560;7.268;2022-07-18T18:52:33;26.50;94.90
36556;DHT22;40859;50.560;7.268;2022-07-18T18:55:00;26.50;95.00
36556;DHT22;40859;50.560;7.268;2022-07-18T18:57:27;26.50;95.20
36556;DHT22;40859;50.560;7.268;2022-07-18T18:59:53;26.50;95.30
36556;DHT22;40859;50.560;7.268;2022-07-18T19:02:19;26.50;95.40
36556;DHT22;40859;50.560;7.268;2022-07-18T19:04:44;26.50;95.60
36556;DHT22;40859;50.560;7.268;2022-07-18T19:07:10;26.50;95.60
36556;DHT22;40859;50.560;7.268;2022-07-18T19:09:37;26.50;96.20
36556;DHT22;40859;50.560;7.268;2022-07-18T19:12:03;26.50;95.80
36556;DHT22;40859;50.560;7.268;2022-07-18T19:14:29;26.50;95.80
36556;DHT22;40859;50.560;7.268;2022-07-18T19:16:55;26.50;95.90
36556;DHT22;40859;50.560;7.268;2022-07-18T19:19:21;26.50;96.00
36556;DHT22;40859;50.560;7.268;2022-07-18T19:21:46;26.50;96.10
36556;DHT22;40859;50.560;7.268;2022-07-18T19:24:12;26.50;96.10
36556;DHT22;40859;50.560;7.268;2022-07-18T19:26:39;26.50;96.10
36556;DHT22;40859;50.560;7.268;2022-07-18T19:29:05;26.50;96.30
36556;DHT22;40859;50.560;7.268;2022-07-18T19:31:31;26.50;96.30
36556;DHT22;40859;50.560;7.268;2022-07-18T19:33:56;26.50;96.40
36556;DHT22;40859;50.560;7.268;2022-07-18T19:36:26;26.50;96.50
36556;DHT22;40859;50.560;7.268;2022-07-18T19:38:52;26.40;96.40
36556;DHT22;40859;50.560;7.268;2022-07-18T19:41:19;26.40;96.40
36556;DHT22;40859;50.560;7.268;2022-07-18T19:43:45;26.50;96.50
36556;DHT22;40859;50.560;7.268;2022-07-18T19:46:11;26.50;96.50
36556;DHT22;40859;50.560;7.268;2022-07-18T19:48:37;26.50;96.60
36556;DHT22;40859;50.560;7.268;2022-07-18T19:51:07;26.50;96.60
36556;DHT22;40859;50.560;7.268;2022-07-18T19:53:33;26.50;96.70
36556;DHT22;40859;50.560;7.268;2022-07-18T19:55:59;26.50;96.80
36556;DHT22;40859;50.560;7.268;2022-07-18T19:58:25;26.40;97.00
36556;DHT22;40859;50.560;7.268;2022-07-18T20:00:51;26.50;97.10
36556;DHT22;40859;50.560;7.268;2022-07-18T20:03:17;26.40;97.30
36556;DHT22;40859;50.560;7.268;2022-07-18T20:05:43;26.40;97.40
36556;DHT22;40859;50.560;7.268;2022-07-18T20:08:09;26.40;97.50
36556;DHT22;40859;50.560;7.268;2022-07-18T20:10:40;26.40;97.60
36556;DHT22;40859;50.560;7.268;2022-07-18T20:13:14;26.40;97.50
36556;DHT22;40859;50.560;7.268;2022-07-18T20:15:40;26.40;97.60
36556;DHT22;40859;50.560;7.268;2022-07-18T20:18:06;26.50;97.60
36556;DHT22;40859;50.560;7.268;2022-07-18T20:20:33;26.40;97.60
36556;DHT22;40859;50.560;7.268;2022-07-18T20:23:00;26.40;97.70
36556;DHT22;40859;50.560;7.268;2022-07-18T20:25:27;26.40;97.70
36556;DHT22;40859;50.560;7.268;2022-07-18T20:27:53;26.40;97.70
36556;DHT22;40859;50.560;7.268;2022-07-18T20:30:19;26.40;97.80
36556;DHT22;40859;50.560;7.268;2022-07-18T20:32:45;26.40;97.80
36556;DHT22;40859;50.560;7.268;2022-07-18T20:35:12;26.40;97.80
36556;DHT22;40859;50.560;7.268;2022-07-18T20:37:42;26.40;97.80
36556;DHT22;40859;50.560;7.268;2022-07-18T20:40:09;26.40;97.80
36556;DHT22;40859;50.560;7.268;2022-07-18T20:42:35;26.40;97.80
36556;DHT22;40859;50.560;7.268;2022-07-18T20:45:02;26.40;97.90
36556;DHT22;40859;50.560;7.268;2022-07-18T20:47:28;26.40;97.90
36556;DHT22;40859;50.560;7.268;2022-07-18T20:49:55;26.40;98.10
36556;DHT22;40859;50.560;7.268;2022-07-18T20:52:21;26.40;98.20
36556;DHT22;40859;50.560;7.268;2022-07-18T20:54:47;26.40;98.20
36556;DHT22;40859;50.560;7.268;2022-07-18T20:57:13;26.40;98.10
36556;DHT22;40859;50.560;7.268;2022-07-18T20:59:46;26.40;98.10
36556;DHT22;40859;50.560;7.268;2022-07-18T21:02:12;26.40;98.10
36556;DHT22;40859;50.560;7.268;2022-07-18T21:04:38;26.40;98.10
36556;DHT22;40859;50.560;7.268;2022-07-18T21:07:04;26.40;98.10
36556;DHT22;40859;50.560;7.268;2022-07-18T21:09:29;26.40;98.10
36556;DHT22;40859;50.560;7.268;2022-07-18T21:11:56;26.40;98.20
36556;DHT22;40859;50.560;7.268;2022-07-18T21:14:23;26.40;98.50
36556;DHT22;40859;50.560;7.268;2022-07-18T21:17:08;26.40;98.20
36556;DHT22;40859;50.560;7.268;2022-07-18T21:19:34;26.40;98.20
36556;DHT22;40859;50.560;7.268;2022-07-18T21:22:00;26.40;98.30
36556;DHT22;40859;50.560;7.268;2022-07-18T21:24:25;26.40;98.20
36556;DHT22;40859;50.560;7.268;2022-07-18T21:26:52;26.40;98.30
36556;DHT22;40859;50.560;7.268;2022-07-18T21:29:18;26.50;98.30
36556;DHT22;40859;50.560;7.268;2022-07-18T21:31:44;26.50;98.30
36556;DHT22;40859;50.560;7.268;2022-07-18T21:34:10;26.50;98.30
36556;DHT22;40859;50.560;7.268;2022-07-18T21:36:36;26.50;98.30
36556;DHT22;40859;50.560;7.268;2022-07-18T21:39:02;26.50;98.20